Time;durP1;ratioP1;P1;durP2;ratioP2;P2;SDS_P1;SDS_P2;PMS_P1;PMS_P2;Temp;Humidity;BMP_temperature;BMP_pressure;BME280_temperature;BME280_humidity;BME280_pressure;Samples;Min_cycle;Max_cycle;Signal;HPM_P1;HPM_P2
2021/09/13 00:00:24;;;;;;;6.27;5.87;;;18.30;99.90;;;;;;5049670;28;20227;-73
2021/09/13 00:02:51;;;;;;;6.70;6.10;;;18.20;99.90;;;;;;5049480;28;20252;-73
2021/09/13 00:05:19;;;;;;;6.63;5.70;;;18.20;99.90;;;;;;5049658;28;20215;-72
2021/09/13 00:07:46;;;;;;;6.90;6.03;;;18.20;99.90;;;;;;5049513;28;20767;-73
2021/09/13 00:10:13;;;;;;;6.97;6.30;;;18.20;99.90;;;;;;5049161;28;20235;-73
2021/09/13 00:12:39;;;;;;;6.90;6.20;;;18.20;99.90;;;;;;5049206;28;20277;-72
2021/09/13 00:15:10;;;;;;;7.80;6.03;;;18.20;99.90;;;;;;5049359;28;20208;-73
2021/09/13 00:17:36;;;;;;;7.20;6.13;;;18.20;99.90;;;;;;5049264;28;20211;-72
2021/09/13 00:20:04;;;;;;;6.07;5.57;;;18.20;99.90;;;;;;5049121;28;20239;-73
2021/09/13 00:22:32;;;;;;;7.10;6.13;;;18.20;99.90;;;;;;5049213;28;20275;-72
2021/09/13 00:24:58;;;;;;;7.13;5.90;;;18.10;99.90;;;;;;5048899;28;20266;-72
2021/09/13 00:27:25;;;;;;;6.83;5.70;;;18.10;99.90;;;;;;5049113;28;20208;-73
2021/09/13 00:29:52;;;;;;;6.57;5.87;;;18.10;99.90;;;;;;5048570;28;20713;-73
2021/09/13 00:32:19;;;;;;;7.50;5.97;;;18.00;99.90;;;;;;5048913;28;20205;-73
2021/09/13 00:34:45;;;;;;;6.73;6.13;;;18.00;99.90;;;;;;5048765;28;20659;-73
2021/09/13 00:37:12;;;;;;;5.73;5.20;;;18.00;99.90;;;;;;5048894;28;20231;-73
2021/09/13 00:39:40;;;;;;;6.30;5.80;;;18.00;99.90;;;;;;5048805;28;20200;-73
2021/09/13 00:42:07;;;;;;;6.37;5.87;;;18.00;99.90;;;;;;5048588;28;20258;-73
2021/09/13 00:44:34;;;;;;;5.83;5.13;;;17.90;99.90;;;;;;5048695;28;20212;-73
2021/09/13 00:47:01;;;;;;;5.87;5.47;;;17.90;99.90;;;;;;5055046;28;20214;-74
2021/09/13 00:49:28;;;;;;;6.93;6.23;;;17.90;99.90;;;;;;5068226;28;20227;-74
2021/09/13 00:51:54;;;;;;;6.83;5.87;;;17.90;99.90;;;;;;5068688;28;20281;-75
2021/09/13 00:54:21;;;;;;;6.93;5.90;;;17.80;99.90;;;;;;5068766;28;20237;-75
2021/09/13 00:56:49;;;;;;;5.90;5.50;;;17.80;99.90;;;;;;5068018;28;20292;-75
2021/09/13 00:59:16;;;;;;;6.40;5.90;;;17.80;99.90;;;;;;5068537;28;20211;-75
2021/09/13 01:01:43;;;;;;;6.90;6.30;;;17.80;99.90;;;;;;5068525;28;20543;-72
2021/09/13 01:04:10;;;;;;;6.60;6.10;;;17.70;99.90;;;;;;5068178;28;20600;-72
2021/09/13 01:06:36;;;;;;;7.83;7.10;;;17.70;99.90;;;;;;5065425;28;20212;-72
2021/09/13 01:09:03;;;;;;;6.10;5.60;;;17.70;99.90;;;;;;5048091;28;20724;-72
2021/09/13 01:11:30;;;;;;;9.37;6.10;;;17.70;99.90;;;;;;5048287;28;20232;-71
2021/09/13 01:13:58;;;;;;;6.97;6.40;;;17.70;99.90;;;;;;5048088;28;20281;-72
2021/09/13 01:16:25;;;;;;;6.27;5.77;;;17.70;99.90;;;;;;5047775;28;20699;-73
2021/09/13 01:18:52;;;;;;;7.67;6.97;;;17.70;99.90;;;;;;5048516;28;20199;-72
2021/09/13 01:21:19;;;;;;;6.87;6.17;;;17.60;99.90;;;;;;5048036;28;20819;-72
2021/09/13 01:23:47;;;;;;;7.23;6.63;;;17.60;99.90;;;;;;5047956;28;20718;-72
2021/09/13 01:26:13;;;;;;;7.57;6.97;;;17.40;99.90;;;;;;5047671;28;20701;-72
2021/09/13 01:28:40;;;;;;;7.73;7.03;;;17.40;99.90;;;;;;5048305;28;20262;-72
2021/09/13 01:31:07;;;;;;;7.00;6.30;;;17.40;99.90;;;;;;5047892;28;20317;-72
2021/09/13 01:33:33;;;;;;;8.53;6.53;;;17.40;99.90;;;;;;5048054;28;20212;-72
2021/09/13 01:36:00;;;;;;;6.50;5.90;;;17.50;99.90;;;;;;5048115;28;20204;-72
2021/09/13 01:38:31;;;;;;;6.90;6.30;;;17.50;99.90;;;;;;5048174;28;20262;-72
2021/09/13 01:40:59;;;;;;;7.33;6.63;;;17.50;99.90;;;;;;5048120;28;20192;-74
2021/09/13 01:43:25;;;;;;;8.23;6.20;;;17.50;99.90;;;;;;5047862;28;20235;-74
2021/09/13 01:45:52;;;;;;;7.13;6.53;;;17.50;99.90;;;;;;5047914;28;20235;-74
2021/09/13 01:48:19;;;;;;;6.83;6.13;;;17.50;99.90;;;;;;5047981;28;20235;-74
2021/09/13 01:50:47;;;;;;;7.37;6.87;;;17.50;99.90;;;;;;5048001;28;20488;-75
2021/09/13 01:53:13;;;;;;;6.67;6.00;;;17.50;99.90;;;;;;5047879;28;20211;-75
2021/09/13 01:55:40;;;;;;;7.17;6.67;;;17.50;99.90;;;;;;5047949;28;20204;-75
2021/09/13 01:58:08;;;;;;;6.63;6.13;;;17.50;99.90;;;;;;5047723;28;20208;-75
2021/09/13 02:00:34;;;;;;;7.23;6.50;;;17.50;99.90;;;;;;5047931;28;20216;-75
2021/09/13 02:03:01;;;;;;;7.80;7.07;;;17.40;99.90;;;;;;5047848;28;20208;-75
2021/09/13 02:05:28;;;;;;;7.10;6.60;;;17.40;99.90;;;;;;5047917;28;20208;-75
2021/09/13 02:07:55;;;;;;;7.57;6.87;;;17.40;99.90;;;;;;5049020;28;20211;-75
2021/09/13 02:10:21;;;;;;;7.70;7.00;;;17.40;99.90;;;;;;5051730;28;20289;-75
2021/09/13 02:12:48;;;;;;;7.03;6.43;;;17.40;99.90;;;;;;5051743;28;20228;-75
2021/09/13 02:15:16;;;;;;;7.80;6.30;;;17.40;99.90;;;;;;5051235;28;20212;-73
2021/09/13 02:17:44;;;;;;;6.57;6.00;;;17.30;99.90;;;;;;5051272;28;20671;-72
2021/09/13 02:20:12;;;;;;;7.00;6.30;;;17.30;99.90;;;;;;5051293;28;20212;-72
2021/09/13 02:22:39;;;;;;;7.67;6.97;;;17.30;99.90;;;;;;5051377;28;20266;-73
2021/09/13 02:25:08;;;;;;;7.60;7.00;;;17.30;99.90;;;;;;5050921;28;20294;-73
2021/09/13 02:27:34;;;;;;;6.80;6.10;;;17.30;99.90;;;;;;5051269;28;20208;-73
2021/09/13 02:30:01;;;;;;;7.20;6.50;;;17.30;99.90;;;;;;5051235;28;20281;-73
2021/09/13 02:32:29;;;;;;;7.20;6.53;;;17.20;99.90;;;;;;5054835;28;20693;-73
2021/09/13 02:34:56;;;;;;;8.73;7.20;;;17.20;99.90;;;;;;5057620;28;20211;-78
2021/09/13 02:37:22;;;;;;;8.90;6.83;;;17.20;99.90;;;;;;5062931;28;20751;-74
2021/09/13 02:39:49;;;;;;;7.57;6.83;;;17.10;99.90;;;;;;5070756;28;20207;-73
2021/09/13 02:42:15;;;;;;;7.40;6.67;;;17.20;99.90;;;;;;5048360;28;20208;-73
2021/09/13 02:44:42;;;;;;;8.30;7.50;;;17.10;99.90;;;;;;5048696;28;20243;-74
2021/09/13 02:47:09;;;;;;;7.63;6.90;;;17.20;99.90;;;;;;5048186;28;20299;-74
2021/09/13 02:49:37;;;;;;;8.90;7.03;;;17.20;99.90;;;;;;5048481;28;20278;-74
2021/09/13 02:52:04;;;;;;;7.20;6.60;;;17.20;99.90;;;;;;5048493;28;20235;-74
2021/09/13 02:54:30;;;;;;;7.40;6.73;;;17.10;99.90;;;;;;5049017;28;20208;-74
2021/09/13 02:56:57;;;;;;;7.07;6.50;;;17.10;99.90;;;;;;5048415;28;20712;-74
2021/09/13 02:59:23;;;;;;;7.47;6.83;;;17.10;99.90;;;;;;5049564;28;20212;-75
2021/09/13 03:01:50;;;;;;;8.00;7.30;;;17.10;99.90;;;;;;5048747;28;20674;-75
2021/09/13 03:04:17;;;;;;;8.53;7.00;;;17.10;99.90;;;;;;5048783;28;20207;-75
2021/09/13 03:06:45;;;;;;;7.63;6.87;;;17.00;99.90;;;;;;5047972;28;20243;-74
2021/09/13 03:09:11;;;;;;;7.33;6.73;;;17.00;99.90;;;;;;5048197;28;20219;-74
2021/09/13 03:11:38;;;;;;;7.77;7.03;;;17.00;99.90;;;;;;5049621;28;20224;-74
2021/09/13 03:14:04;;;;;;;7.57;6.97;;;17.00;99.90;;;;;;5050459;28;20232;-74
2021/09/13 03:16:31;;;;;;;8.60;7.00;;;17.00;99.90;;;;;;5057583;28;20211;-73
2021/09/13 03:18:58;;;;;;;6.83;6.20;;;17.00;99.90;;;;;;5059157;28;20208;-74
2021/09/13 03:21:24;;;;;;;7.63;7.03;;;17.00;99.90;;;;;;5049050;28;20216;-73
2021/09/13 03:23:52;;;;;;;6.97;6.43;;;16.90;99.90;;;;;;5049909;28;20208;-74
2021/09/13 03:26:19;;;;;;;7.93;7.10;;;17.00;99.90;;;;;;5049830;28;20235;-74
2021/09/13 03:28:45;;;;;;;6.60;6.03;;;16.90;99.90;;;;;;5050239;28;20208;-73
2021/09/13 03:31:12;;;;;;;7.67;7.00;;;16.90;99.90;;;;;;5049975;28;20298;-73
2021/09/13 03:33:39;;;;;;;8.30;7.37;;;16.80;99.90;;;;;;5050177;28;20321;-74
2021/09/13 03:36:05;;;;;;;9.20;7.30;;;16.80;99.90;;;;;;5050097;28;20212;-73
2021/09/13 03:38:33;;;;;;;9.13;7.87;;;16.80;99.90;;;;;;5050181;28;20266;-73
2021/09/13 03:41:01;;;;;;;8.00;7.20;;;16.90;99.90;;;;;;5049879;28;20232;-74
2021/09/13 03:43:28;;;;;;;8.87;8.07;;;16.90;99.90;;;;;;5049896;28;20204;-73
2021/09/13 03:45:55;;;;;;;10.50;7.80;;;16.90;99.90;;;;;;5049881;28;20205;-73
2021/09/13 03:48:22;;;;;;;8.10;7.40;;;16.90;99.90;;;;;;5049821;28;20228;-74
2021/09/13 03:50:49;;;;;;;8.20;7.40;;;16.90;99.90;;;;;;5049904;28;20717;-73
2021/09/13 03:53:16;;;;;;;8.13;7.27;;;16.90;99.90;;;;;;5049877;28;20244;-73
2021/09/13 03:55:42;;;;;;;8.37;7.47;;;16.90;99.90;;;;;;5049878;28;20242;-73
2021/09/13 03:58:10;;;;;;;8.43;7.60;;;16.90;99.90;;;;;;5049620;28;20282;-73
2021/09/13 04:00:37;;;;;;;7.63;6.93;;;16.80;99.90;;;;;;5049606;28;20217;-73
2021/09/13 04:03:06;;;;;;;8.00;7.23;;;16.80;99.90;;;;;;5049397;28;20204;-73
2021/09/13 04:05:33;;;;;;;8.07;7.23;;;16.70;99.90;;;;;;5049644;28;20207;-74
2021/09/13 04:08:13;;;;;;;7.63;7.00;;;16.80;99.90;;;;;;5049330;28;20200;-73
2021/09/13 04:10:45;;;;;;;7.93;7.27;;;16.70;99.90;;;;;;5049349;28;20270;-73
2021/09/13 04:13:13;;;;;;;7.77;7.07;;;16.80;99.90;;;;;;5049067;28;20232;-74
2021/09/13 04:15:40;;;;;;;8.20;7.40;;;16.70;99.90;;;;;;5049014;28;20717;-73
2021/09/13 04:18:07;;;;;;;8.20;7.50;;;16.70;99.90;;;;;;5049170;28;20212;-73
2021/09/13 04:20:33;;;;;;;8.20;7.37;;;16.70;99.90;;;;;;5049405;28;20244;-73
2021/09/13 04:23:00;;;;;;;8.07;7.30;;;16.70;99.90;;;;;;5049204;28;20257;-74
2021/09/13 04:25:27;;;;;;;7.93;7.27;;;16.70;99.90;;;;;;5048996;28;20268;-73
2021/09/13 04:27:53;;;;;;;8.10;7.37;;;16.70;99.90;;;;;;5049150;28;20216;-73
2021/09/13 04:30:23;;;;;;;7.40;6.90;;;16.70;99.90;;;;;;5047530;28;20428;-73
2021/09/13 04:32:50;;;;;;;7.63;6.93;;;16.70;99.90;;;;;;5049086;28;20208;-74
2021/09/13 04:35:17;;;;;;;7.43;6.93;;;16.70;99.90;;;;;;5048897;28;20307;-73
2021/09/13 04:37:43;;;;;;;10.80;7.67;;;16.70;99.90;;;;;;5049163;28;20204;-73
2021/09/13 04:40:13;;;;;;;8.13;7.33;;;16.60;99.90;;;;;;5048655;28;20208;-74
2021/09/13 04:42:39;;;;;;;7.63;7.03;;;16.60;99.90;;;;;;5048612;28;20298;-74
2021/09/13 04:45:07;;;;;;;8.37;7.57;;;16.60;99.90;;;;;;5048491;28;20208;-73
2021/09/13 04:47:35;;;;;;;10.30;7.43;;;16.60;99.90;;;;;;5048609;28;20224;-74
2021/09/13 04:50:02;;;;;;;8.20;7.33;;;16.60;99.90;;;;;;5048385;28;20208;-74
2021/09/13 04:52:29;;;;;;;7.77;7.07;;;16.60;99.90;;;;;;5048438;28;20632;-73
2021/09/13 04:54:56;;;;;;;8.07;7.27;;;16.60;99.90;;;;;;5048279;28;20678;-74
2021/09/13 04:57:22;;;;;;;7.40;6.73;;;16.60;99.90;;;;;;5048325;28;20205;-73
2021/09/13 04:59:49;;;;;;;7.37;6.80;;;16.50;99.90;;;;;;5048657;28;20254;-73
2021/09/13 05:02:15;;;;;;;8.37;7.57;;;16.60;99.90;;;;;;5048104;28;20220;-74
2021/09/13 05:04:43;;;;;;;8.40;7.60;;;16.50;99.90;;;;;;5048430;28;20204;-73
2021/09/13 05:07:11;;;;;;;8.00;6.80;;;16.50;99.90;;;;;;5048430;28;20211;-74
2021/09/13 05:09:37;;;;;;;7.63;7.03;;;16.50;99.90;;;;;;5051945;28;20326;-73
2021/09/13 05:12:04;;;;;;;8.53;7.60;;;16.50;99.90;;;;;;5068172;28;20227;-73
2021/09/13 05:14:31;;;;;;;7.63;7.00;;;16.50;99.90;;;;;;5068464;28;20245;-73
2021/09/13 05:16:58;;;;;;;8.13;7.43;;;16.50;99.90;;;;;;5068505;28;20207;-73
2021/09/13 05:19:24;;;;;;;7.70;7.07;;;16.50;99.90;;;;;;5068656;28;20284;-74
2021/09/13 05:21:52;;;;;;;7.37;6.77;;;16.50;99.90;;;;;;5068102;28;20615;-74
2021/09/13 05:24:19;;;;;;;8.27;7.60;;;16.50;99.90;;;;;;5068119;28;20208;-74
2021/09/13 05:26:45;;;;;;;9.87;7.30;;;16.50;99.90;;;;;;5067728;28;20204;-74
2021/09/13 05:29:12;;;;;;;8.17;7.03;;;16.50;99.90;;;;;;5068236;28;20243;-73
2021/09/13 05:31:39;;;;;;;8.47;7.67;;;16.50;99.90;;;;;;5068041;28;20280;-74
2021/09/13 05:34:05;;;;;;;9.53;7.03;;;16.50;99.90;;;;;;5067866;28;20240;-73
2021/09/13 05:36:32;;;;;;;7.50;6.90;;;16.50;99.90;;;;;;5068094;28;20203;-74
2021/09/13 05:39:00;;;;;;;7.97;7.10;;;16.40;99.90;;;;;;5068028;28;20264;-74
2021/09/13 05:41:27;;;;;;;8.00;7.30;;;16.40;99.90;;;;;;5068214;28;20811;-73
2021/09/13 05:43:53;;;;;;;8.27;7.57;;;16.40;99.90;;;;;;5072057;28;20207;-73
2021/09/13 05:46:20;;;;;;;7.63;7.03;;;16.40;99.90;;;;;;5071974;28;20206;-73
2021/09/13 05:48:46;;;;;;;8.40;7.57;;;16.30;99.90;;;;;;5071888;28;21048;-74
2021/09/13 05:51:13;;;;;;;7.50;6.63;;;16.30;99.90;;;;;;5071819;28;20254;-74
2021/09/13 05:53:39;;;;;;;9.43;7.13;;;16.40;99.90;;;;;;5072164;28;20239;-73
2021/09/13 05:56:07;;;;;;;7.47;6.90;;;16.40;99.90;;;;;;5071875;28;20241;-74
2021/09/13 05:58:34;;;;;;;9.80;7.13;;;16.40;99.90;;;;;;5071626;28;20727;-74
2021/09/13 06:01:01;;;;;;;7.20;6.57;;;16.40;99.90;;;;;;5071857;28;20550;-74
2021/09/13 06:03:27;;;;;;;7.27;6.63;;;16.40;99.90;;;;;;5071779;28;20261;-74
2021/09/13 06:05:54;;;;;;;8.60;7.67;;;16.40;99.90;;;;;;5071877;28;20203;-74
2021/09/13 06:08:21;;;;;;;8.27;7.03;;;16.40;99.90;;;;;;5071697;28;20208;-73
2021/09/13 06:10:47;;;;;;;7.03;6.33;;;16.50;99.90;;;;;;5071493;28;20281;-73
2021/09/13 06:13:15;;;;;;;7.03;6.50;;;16.50;99.90;;;;;;5071395;28;20235;-73
2021/09/13 06:15:42;;;;;;;7.20;6.50;;;16.40;99.90;;;;;;5071758;28;20237;-73
2021/09/13 06:18:11;;;;;;;7.03;6.43;;;16.30;99.90;;;;;;5071388;28;20266;-73
2021/09/13 06:20:38;;;;;;;7.40;6.80;;;16.40;99.90;;;;;;5071617;28;20199;-73
2021/09/13 06:23:05;;;;;;;7.10;6.50;;;16.40;99.90;;;;;;5071707;28;20239;-74
2021/09/13 06:25:31;;;;;;;7.23;6.53;;;16.30;99.90;;;;;;5071395;28;20243;-73
2021/09/13 06:27:58;;;;;;;6.73;6.20;;;16.30;99.90;;;;;;5071415;28;20238;-73
2021/09/13 06:30:26;;;;;;;8.37;6.63;;;16.20;99.90;;;;;;5071325;28;20272;-73
2021/09/13 06:32:52;;;;;;;7.43;6.67;;;16.10;99.90;;;;;;5071557;28;20297;-73
2021/09/13 06:35:19;;;;;;;6.50;6.00;;;16.00;99.90;;;;;;5070932;28;20678;-73
2021/09/13 06:37:46;;;;;;;7.57;6.40;;;15.90;99.90;;;;;;5071292;28;20204;-73
2021/09/13 06:40:12;;;;;;;8.70;7.40;;;16.00;99.90;;;;;;5071247;28;20204;-73
2021/09/13 06:42:39;;;;;;;7.60;5.87;;;16.00;99.90;;;;;;5070744;28;20207;-73
2021/09/13 06:45:10;;;;;;;6.27;5.67;;;16.10;99.90;;;;;;5071190;28;20276;-73
2021/09/13 06:47:45;;;;;;;6.30;5.70;;;16.30;99.90;;;;;;5071129;28;20296;-73
2021/09/13 06:50:14;;;;;;;6.63;5.33;;;16.40;99.90;;;;;;5070984;28;20199;-73
2021/09/13 06:52:40;;;;;;;8.93;6.27;;;16.30;99.90;;;;;;5070943;28;21113;-73
2021/09/13 06:55:08;;;;;;;6.37;5.13;;;16.30;99.90;;;;;;5069864;28;20211;-73
2021/09/13 06:57:35;;;;;;;7.70;5.60;;;16.30;99.90;;;;;;5070788;28;20261;-73
2021/09/13 07:00:03;;;;;;;8.90;5.23;;;16.40;99.90;;;;;;5071081;28;20215;-73
2021/09/13 07:02:31;;;;;;;8.90;5.27;;;16.50;99.90;;;;;;5070822;28;20212;-73
2021/09/13 07:05:00;;;;;;;6.93;5.50;;;16.40;99.90;;;;;;5070886;28;20265;-73
2021/09/13 07:07:26;;;;;;;5.50;5.00;;;16.50;99.90;;;;;;5070310;28;20602;-73
2021/09/13 07:09:53;;;;;;;7.67;4.57;;;16.50;99.90;;;;;;5070851;28;20224;-73
2021/09/13 07:12:20;;;;;;;6.30;4.70;;;16.60;99.90;;;;;;5070320;28;20239;-73
2021/09/13 07:14:46;;;;;;;5.70;5.07;;;16.70;99.90;;;;;;5070623;28;20296;-73
2021/09/13 07:17:13;;;;;;;6.27;5.10;;;16.70;99.90;;;;;;5070393;28;20207;-73
2021/09/13 07:19:40;;;;;;;6.70;5.47;;;16.70;99.90;;;;;;5070321;28;20227;-73
2021/09/13 07:22:08;;;;;;;5.93;5.23;;;16.80;99.90;;;;;;5069874;28;20284;-73
2021/09/13 07:24:35;;;;;;;7.30;5.33;;;16.80;99.90;;;;;;5070093;28;20292;-73
2021/09/13 07:27:02;;;;;;;5.07;4.63;;;16.80;99.90;;;;;;5070272;28;20228;-73
2021/09/13 07:29:28;;;;;;;5.20;4.50;;;16.70;99.90;;;;;;5070122;28;20249;-73
2021/09/13 07:31:55;;;;;;;6.27;4.97;;;16.80;99.90;;;;;;5070189;28;20253;-73
2021/09/13 07:34:21;;;;;;;7.77;4.93;;;16.80;99.90;;;;;;5069899;28;20720;-74
2021/09/13 07:36:48;;;;;;;6.07;4.30;;;16.90;99.90;;;;;;5070245;28;20207;-73
2021/09/13 07:39:16;;;;;;;5.07;4.57;;;16.90;99.90;;;;;;5069622;28;20199;-73
2021/09/13 07:41:42;;;;;;;5.53;4.30;;;17.00;99.90;;;;;;5070056;28;20207;-73
2021/09/13 07:44:09;;;;;;;6.70;4.50;;;17.00;99.90;;;;;;5070042;28;20280;-73
2021/09/13 07:46:36;;;;;;;6.63;4.37;;;17.20;99.90;;;;;;5069937;28;20239;-73
2021/09/13 07:49:02;;;;;;;4.53;4.10;;;17.40;99.90;;;;;;5069958;28;20911;-73
2021/09/13 07:51:29;;;;;;;6.50;4.50;;;17.40;99.90;;;;;;5069798;28;20203;-73
2021/09/13 07:53:56;;;;;;;5.10;4.60;;;17.50;99.90;;;;;;5069837;28;20298;-73
2021/09/13 07:56:24;;;;;;;6.83;4.77;;;17.50;99.90;;;;;;5069425;28;20628;-73
2021/09/13 07:58:50;;;;;;;5.60;4.87;;;17.60;99.90;;;;;;5069546;28;20682;-73
2021/09/13 08:01:17;;;;;;;5.43;4.20;;;17.70;99.90;;;;;;5069572;28;20616;-73
2021/09/13 08:03:44;;;;;;;4.60;4.30;;;17.80;99.90;;;;;;5069548;28;20211;-73
2021/09/13 08:06:10;;;;;;;4.50;4.03;;;17.80;99.90;;;;;;5068459;28;20200;-73
2021/09/13 08:08:37;;;;;;;6.43;4.43;;;17.90;99.90;;;;;;5069574;28;20210;-73
2021/09/13 08:11:06;;;;;;;5.70;4.63;;;17.80;99.90;;;;;;5069594;28;20203;-73
2021/09/13 08:13:39;;;;;;;8.23;5.70;;;17.80;99.90;;;;;;5068944;28;20277;-73
2021/09/13 08:16:05;;;;;;;4.60;4.13;;;17.70;99.90;;;;;;5069694;28;20192;-73
2021/09/13 08:18:32;;;;;;;7.70;4.23;;;17.80;99.90;;;;;;5069402;28;20226;-73
2021/09/13 08:20:59;;;;;;;4.97;4.13;;;17.80;99.90;;;;;;5069248;28;20238;-73
2021/09/13 08:23:25;;;;;;;4.77;4.03;;;17.90;99.90;;;;;;5068847;28;20263;-73
2021/09/13 08:25:52;;;;;;;4.27;3.83;;;17.90;99.90;;;;;;5068922;28;20236;-73
2021/09/13 08:28:20;;;;;;;4.20;3.80;;;18.00;99.90;;;;;;5068890;28;20276;-73
2021/09/13 08:30:48;;;;;;;5.23;3.70;;;18.10;99.90;;;;;;5069140;28;20234;-73
2021/09/13 08:33:15;;;;;;;4.03;3.70;;;18.10;99.90;;;;;;5068792;28;20276;-73
2021/09/13 08:35:42;;;;;;;5.67;4.13;;;18.20;99.90;;;;;;5068992;28;20210;-73
2021/09/13 08:38:08;;;;;;;3.90;3.60;;;18.40;99.90;;;;;;5068988;28;20685;-73
2021/09/13 08:40:35;;;;;;;4.83;3.80;;;18.50;99.90;;;;;;5068645;28;20250;-73
2021/09/13 08:43:03;;;;;;;3.97;3.57;;;18.60;99.90;;;;;;5068926;28;20269;-73
2021/09/13 08:45:35;;;;;;;5.93;4.07;;;18.50;99.90;;;;;;5068702;28;20208;-73
2021/09/13 08:48:10;;;;;;;5.17;3.47;;;18.50;99.90;;;;;;5068969;28;20666;-73
2021/09/13 08:50:52;;;;;;;5.73;3.40;;;18.60;99.90;;;;;;5068572;28;20256;-73
2021/09/13 08:53:22;;;;;;;6.23;3.63;;;18.60;99.90;;;;;;5068612;28;20215;-73
2021/09/13 08:55:50;;;;;;;5.13;3.33;;;18.60;99.90;;;;;;5068753;28;20290;-73
2021/09/13 08:58:22;;;;;;;4.53;3.43;;;18.60;99.90;;;;;;5068509;28;20234;-73
2021/09/13 09:00:50;;;;;;;3.80;3.40;;;18.60;99.90;;;;;;5068718;28;20215;-73
2021/09/13 09:03:18;;;;;;;3.27;3.07;;;18.50;99.90;;;;;;5068735;28;20288;-73
2021/09/13 09:05:47;;;;;;;3.50;3.30;;;18.40;99.90;;;;;;5068575;28;20203;-74
2021/09/13 09:08:24;;;;;;;3.73;3.20;;;18.40;99.90;;;;;;5068517;28;20239;-73
2021/09/13 09:10:54;;;;;;;7.93;3.20;;;18.40;99.90;;;;;;5068804;28;20253;-73
2021/09/13 09:13:20;;;;;;;5.67;3.47;;;18.30;99.90;;;;;;5068004;28;20251;-74
2021/09/13 09:15:56;;;;;;;5.90;3.23;;;18.30;99.90;;;;;;5068536;28;20203;-73
2021/09/13 09:18:25;;;;;;;3.77;3.10;;;18.30;99.90;;;;;;5068139;28;20198;-73
2021/09/13 09:20:52;;;;;;;3.10;2.80;;;18.40;99.90;;;;;;5068378;28;20206;-73
2021/09/13 09:23:18;;;;;;;6.20;3.43;;;18.60;99.90;;;;;;5068226;28;20207;-74
2021/09/13 09:25:47;;;;;;;3.10;2.90;;;18.70;99.90;;;;;;5068206;28;20239;-73
2021/09/13 09:28:16;;;;;;;4.83;3.07;;;18.80;99.90;;;;;;5068214;28;20214;-73
2021/09/13 09:30:44;;;;;;;4.50;3.53;;;18.80;99.90;;;;;;5068312;28;20207;-73
2021/09/13 09:33:13;;;;;;;3.67;3.37;;;18.80;99.90;;;;;;5068064;28;20285;-74
2021/09/13 09:35:52;;;;;;;4.60;3.87;;;18.80;99.90;;;;;;5068236;28;20265;-73
2021/09/13 09:38:34;;;;;;;3.63;3.33;;;18.80;99.90;;;;;;5067630;28;20561;-73
2021/09/13 09:41:02;;;;;;;5.97;3.10;;;18.80;99.90;;;;;;5068168;28;20241;-74
2021/09/13 09:43:31;;;;;;;3.03;2.83;;;18.70;99.90;;;;;;5067630;28;20815;-74
2021/09/13 09:45:58;;;;;;;7.10;3.23;;;18.60;99.90;;;;;;5068200;28;20203;-74
2021/09/13 09:48:31;;;;;;;3.33;3.03;;;18.60;99.90;;;;;;5067890;28;20238;-73
2021/09/13 09:51:00;;;;;;;4.93;2.97;;;18.50;99.90;;;;;;5067851;28;20724;-73
2021/09/13 09:53:29;;;;;;;4.00;2.70;;;18.50;99.90;;;;;;5067773;28;20245;-73
2021/09/13 09:56:12;;;;;;;3.97;2.70;;;18.70;99.90;;;;;;5067932;28;20207;-73
2021/09/13 09:58:57;;;;;;;2.43;2.23;;;18.70;99.90;;;;;;5067722;28;20203;-73
2021/09/13 10:01:34;;;;;;;7.23;2.90;;;18.90;99.90;;;;;;5067879;28;20246;-74
2021/09/13 10:04:15;;;;;;;2.60;2.40;;;19.00;99.90;;;;;;5067958;28;20191;-73
2021/09/13 10:06:44;;;;;;;3.80;2.53;;;19.10;99.90;;;;;;5067706;28;20226;-73
2021/09/13 10:09:13;;;;;;;3.57;2.37;;;19.00;99.90;;;;;;5068091;28;20277;-74
2021/09/13 10:11:41;;;;;;;4.27;2.57;;;19.20;99.90;;;;;;5067651;28;20276;-74
2021/09/13 10:14:10;;;;;;;2.90;2.60;;;19.30;99.90;;;;;;5067753;28;20250;-74
2021/09/13 10:16:38;;;;;;;2.70;2.50;;;19.20;99.90;;;;;;5068086;28;20277;-74
2021/09/13 10:19:05;;;;;;;5.07;2.53;;;19.20;99.90;;;;;;5067876;28;20208;-74
2021/09/13 10:21:32;;;;;;;2.53;2.33;;;19.40;99.90;;;;;;5067750;28;20204;-74
2021/09/13 10:24:01;;;;;;;5.73;2.67;;;19.40;99.90;;;;;;5067527;28;20626;-73
2021/09/13 10:26:28;;;;;;;4.60;2.63;;;19.50;99.90;;;;;;5067086;28;20235;-73
2021/09/13 10:29:21;;;;;;;5.40;3.07;;;19.60;99.90;;;;;;5068675;28;20209;-74
2021/09/13 10:32:07;;;;;;;3.03;2.73;;;19.60;99.90;;;;;;5071170;28;20192;-74
2021/09/13 10:34:47;;;;;;;3.63;2.60;;;19.50;99.90;;;;;;5071174;28;20227;-74
2021/09/13 10:37:15;;;;;;;2.77;2.57;;;19.40;99.90;;;;;;5071334;28;20196;-73
2021/09/13 10:39:58;;;;;;;3.57;2.87;;;19.40;99.90;;;;;;5071169;28;20241;-74
2021/09/13 10:42:30;;;;;;;5.20;2.90;;;19.30;99.90;;;;;;5070665;28;20598;-74
2021/09/13 10:45:05;;;;;;;5.27;2.40;;;19.20;99.90;;;;;;5070981;28;20269;-74
2021/09/13 10:47:33;;;;;;;3.73;3.17;;;19.00;99.90;;;;;;5070850;28;20276;-73
2021/09/13 10:50:15;;;;;;;3.70;2.73;;;19.00;99.90;;;;;;5070933;28;20256;-74
2021/09/13 10:52:42;;;;;;;3.93;2.67;;;19.00;99.90;;;;;;5070853;28;20207;-73
2021/09/13 10:55:37;;;;;;;3.63;2.50;;;19.20;99.90;;;;;;5071041;28;20207;-74
2021/09/13 10:58:11;;;;;;;2.93;2.70;;;19.20;99.90;;;;;;5071198;28;20211;-74
2021/09/13 11:01:01;;;;;;;2.37;2.17;;;19.30;99.90;;;;;;5070877;28;20282;-74
2021/09/13 11:03:41;;;;;;;5.80;2.80;;;19.40;99.90;;;;;;5070757;28;20207;-74
2021/09/13 11:06:27;;;;;;;2.40;2.30;;;19.40;99.90;;;;;;5071112;28;20596;-73
2021/09/13 11:08:55;;;;;;;3.53;2.33;;;19.50;99.90;;;;;;5060430;28;20765;-74
2021/09/13 11:11:26;;;;;;;2.70;2.50;;;19.50;99.90;;;;;;5070531;28;20223;-74
2021/09/13 11:13:57;;;;;;;2.97;2.77;;;19.60;99.90;;;;;;5070412;28;20235;-74
2021/09/13 11:16:25;;;;;;;2.53;2.33;;;19.70;99.90;;;;;;5070582;28;20203;-73
2021/09/13 11:18:51;;;;;;;2.50;2.30;;;19.60;99.90;;;;;;5070570;28;20199;-74
2021/09/13 11:21:20;;;;;;;3.50;2.43;;;19.70;99.90;;;;;;5070530;28;20199;-74
2021/09/13 11:23:49;;;;;;;3.60;2.63;;;19.60;99.90;;;;;;5070156;28;20214;-74
2021/09/13 11:26:16;;;;;;;5.87;2.67;;;19.60;99.90;;;;;;5069761;28;20709;-74
2021/09/13 11:28:58;;;;;;;3.87;3.00;;;19.60;99.90;;;;;;5070185;28;20207;-74
2021/09/13 11:31:31;;;;;;;6.00;2.50;;;19.40;99.90;;;;;;5070195;28;20284;-74
2021/09/13 11:33:58;;;;;;;3.00;2.80;;;19.50;99.90;;;;;;5070416;28;20306;-74
2021/09/13 11:36:26;;;;;;;4.13;2.87;;;19.70;99.90;;;;;;5070238;28;20204;-74
2021/09/13 11:39:02;;;;;;;3.13;2.93;;;19.90;99.90;;;;;;5070348;28;20199;-74
2021/09/13 11:41:29;;;;;;;4.07;2.37;;;19.90;99.90;;;;;;5070105;28;20207;-73
2021/09/13 11:44:06;;;;;;;2.40;2.20;;;20.00;99.90;;;;;;5070257;28;20476;-74
2021/09/13 11:46:50;;;;;;;5.90;2.80;;;20.20;99.90;;;;;;5070029;28;20230;-74
2021/09/13 11:49:18;;;;;;;2.80;2.60;;;20.10;99.90;;;;;;5070206;28;20191;-74
2021/09/13 11:52:16;;;;;;;4.83;2.90;;;20.10;99.90;;;;;;5069875;28;20257;-74
2021/09/13 11:54:46;;;;;;;2.40;2.30;;;19.90;99.90;;;;;;5007386;28;20222;-73
2021/09/13 11:57:28;;;;;;;2.60;2.40;;;20.00;99.90;;;;;;5057341;28;20237;-74
2021/09/13 11:59:58;;;;;;;3.43;2.80;;;20.10;99.90;;;;;;5069756;28;20196;-74
2021/09/13 12:02:27;;;;;;;3.57;2.50;;;20.00;99.90;;;;;;5069996;28;20214;-74
2021/09/13 12:04:55;;;;;;;2.50;2.30;;;19.90;99.90;;;;;;5070224;28;20207;-74
2021/09/13 12:07:23;;;;;;;3.23;2.93;;;20.00;99.90;;;;;;5069646;28;20331;-74
2021/09/13 12:09:52;;;;;;;3.80;2.80;;;20.10;99.90;;;;;;5069484;28;20227;-74
2021/09/13 12:12:22;;;;;;;3.93;3.03;;;20.10;99.90;;;;;;5069351;28;20324;-74
2021/09/13 12:14:49;;;;;;;2.40;2.20;;;20.30;99.90;;;;;;5069359;28;20224;-74
2021/09/13 12:17:19;;;;;;;4.67;2.07;;;20.30;99.90;;;;;;5069192;28;20225;-74
2021/09/13 12:19:48;;;;;;;4.03;2.07;;;20.30;99.90;;;;;;5069172;28;20238;-74
2021/09/13 12:22:16;;;;;;;2.23;2.13;;;20.00;99.90;;;;;;5069257;28;20199;-74
2021/09/13 12:24:45;;;;;;;3.03;2.17;;;19.90;99.90;;;;;;5069070;28;20316;-74
2021/09/13 12:27:20;;;;;;;3.63;2.10;;;19.90;99.90;;;;;;5069191;28;20203;-74
2021/09/13 12:29:58;;;;;;;3.53;2.13;;;19.90;99.90;;;;;;5068869;28;20195;-74
2021/09/13 12:32:27;;;;;;;2.20;2.10;;;19.90;99.90;;;;;;5069129;28;20223;-74
2021/09/13 12:34:56;;;;;;;2.43;2.20;;;19.80;99.90;;;;;;5069009;28;20235;-74
2021/09/13 12:37:31;;;;;;;3.60;2.40;;;19.80;99.90;;;;;;5068968;28;20216;-74
2021/09/13 12:40:17;;;;;;;3.43;2.27;;;19.90;99.90;;;;;;5069062;28;20250;-74
2021/09/13 12:42:56;;;;;;;3.47;2.90;;;20.00;99.90;;;;;;5068825;28;20249;-74
2021/09/13 12:45:24;;;;;;;2.57;2.37;;;20.00;99.90;;;;;;5068992;28;20204;-74
2021/09/13 12:47:55;;;;;;;2.60;2.40;;;20.00;99.90;;;;;;5068897;28;20223;-74
2021/09/13 12:50:36;;;;;;;2.70;2.30;;;20.00;99.90;;;;;;5068729;28;20203;-74
2021/09/13 12:53:10;;;;;;;8.43;2.80;;;19.90;99.90;;;;;;5068086;28;20204;-74